Time;durP1;ratioP1;P1;durP2;ratioP2;P2;SDS_P1;SDS_P2;PMS_P1;PMS_P2;Temp;Humidity;BMP_temperature;BMP_pressure;BME280_temperature;BME280_humidity;BME280_pressure;Samples;Min_cycle;Max_cycle;Signal;HPM_P1;HPM_P2
2020/12/14 00:01:00;;;;;;;7.43;6.73;;;3.70;99.90;;;;;;5036266;28;20556;-83
2020/12/14 00:03:26;;;;;;;7.50;6.80;;;3.80;99.90;;;;;;5036036;28;20450;-83
2020/12/14 00:05:51;;;;;;;7.33;6.73;;;3.60;99.90;;;;;;5035682;28;20846;-84
2020/12/14 00:08:17;;;;;;;8.63;7.40;;;3.50;99.90;;;;;;5035595;28;20195;-84
2020/12/14 00:10:43;;;;;;;8.80;7.43;;;3.90;99.90;;;;;;5035464;28;20678;-84
2020/12/14 00:13:09;;;;;;;9.87;7.30;;;3.70;99.90;;;;;;5035861;28;20168;-84
2020/12/14 00:15:34;;;;;;;8.17;7.40;;;3.70;99.90;;;;;;5037553;28;20509;-84
2020/12/14 00:18:00;;;;;;;8.60;7.73;;;3.50;99.90;;;;;;5036013;28;20445;-84
2020/12/14 00:20:25;;;;;;;8.87;8.10;;;3.40;99.90;;;;;;5036952;28;20600;-84
2020/12/14 00:22:51;;;;;;;8.33;7.63;;;3.40;99.90;;;;;;5035786;28;20635;-83
2020/12/14 00:25:16;;;;;;;8.43;7.63;;;3.70;99.90;;;;;;5035251;28;20208;-83
2020/12/14 00:27:43;;;;;;;8.77;8.00;;;3.70;99.90;;;;;;5035723;28;20259;-83
2020/12/14 00:30:09;;;;;;;7.93;7.17;;;3.60;99.90;;;;;;5035263;28;20203;-83
2020/12/14 00:32:35;;;;;;;8.33;7.63;;;3.30;99.90;;;;;;5035272;28;20423;-84
2020/12/14 00:35:01;;;;;;;7.57;5.77;;;3.60;99.90;;;;;;5035350;28;20416;-84
2020/12/14 00:37:26;;;;;;;8.87;8.03;;;3.70;99.90;;;;;;5036400;28;20169;-83
2020/12/14 00:39:52;;;;;;;10.13;8.07;;;3.70;99.90;;;;;;5035128;28;20254;-84
2020/12/14 00:42:17;;;;;;;9.67;8.77;;;3.70;99.90;;;;;;5035463;28;20533;-83
2020/12/14 00:44:43;;;;;;;9.70;8.70;;;3.70;99.90;;;;;;5034985;28;20583;-83
2020/12/14 00:47:08;;;;;;;8.87;7.90;;;3.40;99.90;;;;;;5036135;28;20173;-83
2020/12/14 00:49:35;;;;;;;9.63;8.63;;;3.50;99.90;;;;;;5036077;28;20256;-83
2020/12/14 00:52:04;;;;;;;10.20;9.30;;;3.80;99.90;;;;;;5036407;28;20201;-83
2020/12/14 00:54:32;;;;;;;9.87;8.87;;;3.20;99.90;;;;;;5034525;28;20644;-85
2020/12/14 00:56:57;;;;;;;10.93;8.93;;;3.20;99.90;;;;;;5033646;28;20547;-84
2020/12/14 00:59:23;;;;;;;13.93;9.23;;;3.50;99.90;;;;;;5036360;28;20474;-84
2020/12/14 01:01:53;;;;;;;9.30;8.40;;;3.20;99.90;;;;;;5036101;28;20208;-84
2020/12/14 01:04:19;;;;;;;9.30;8.40;;;3.40;99.90;;;;;;5034870;28;20212;-83
2020/12/14 01:06:45;;;;;;;9.77;8.57;;;3.00;99.90;;;;;;5035866;28;20915;-83
2020/12/14 01:09:11;;;;;;;10.80;9.80;;;3.00;99.90;;;;;;5035909;28;20422;-84
2020/12/14 01:11:36;;;;;;;10.23;9.23;;;3.50;99.90;;;;;;5035864;28;20180;-83
2020/12/14 01:14:02;;;;;;;11.27;10.10;;;3.40;99.90;;;;;;5034391;28;20544;-83
2020/12/14 01:16:27;;;;;;;11.70;10.23;;;3.00;99.90;;;;;;5034487;28;20187;-84
2020/12/14 01:18:53;;;;;;;11.90;10.73;;;3.10;99.90;;;;;;5034225;28;20176;-84
2020/12/14 01:21:23;;;;;;;12.63;11.30;;;3.40;99.90;;;;;;5035600;28;20169;-83
2020/12/14 01:23:49;;;;;;;11.27;10.23;;;3.20;99.90;;;;;;5034322;28;20204;-84
2020/12/14 01:26:14;;;;;;;11.20;9.83;;;3.00;99.90;;;;;;5034376;28;20764;-85
2020/12/14 01:28:40;;;;;;;10.00;9.00;;;2.80;99.90;;;;;;5034286;28;20953;-83
2020/12/14 01:31:05;;;;;;;10.93;9.80;;;3.20;99.90;;;;;;5035461;28;20177;-84
2020/12/14 01:33:31;;;;;;;11.57;9.83;;;3.10;99.90;;;;;;5035229;28;20176;-84
2020/12/14 01:35:56;;;;;;;10.47;9.37;;;3.30;99.90;;;;;;5034024;28;20255;-84
2020/12/14 01:38:22;;;;;;;10.23;9.20;;;3.40;99.90;;;;;;5033772;28;20177;-84
2020/12/14 01:40:48;;;;;;;11.77;10.27;;;2.90;99.90;;;;;;5033845;28;20183;-84
2020/12/14 01:43:13;;;;;;;10.43;8.43;;;3.00;99.90;;;;;;5033788;28;20238;-84
2020/12/14 01:45:39;;;;;;;12.90;9.20;;;2.90;99.90;;;;;;5033750;28;20580;-83
2020/12/14 01:48:07;;;;;;;11.37;9.47;;;3.00;99.90;;;;;;5034945;28;20595;-84
2020/12/14 01:50:35;;;;;;;11.37;10.20;;;2.90;99.90;;;;;;5033481;28;20540;-84
2020/12/14 01:53:01;;;;;;;9.57;8.70;;;3.00;99.90;;;;;;5034760;28;20447;-84
2020/12/14 01:55:31;;;;;;;10.60;9.13;;;3.30;99.90;;;;;;5033461;28;20775;-83
2020/12/14 01:57:57;;;;;;;11.57;9.57;;;2.80;99.90;;;;;;5033243;28;20474;-83
2020/12/14 02:00:22;;;;;;;10.10;8.37;;;2.70;99.90;;;;;;5033234;28;20423;-84
2020/12/14 02:02:48;;;;;;;9.80;8.80;;;2.60;99.90;;;;;;5034391;28;20259;-83
2020/12/14 02:05:13;;;;;;;9.80;8.77;;;3.00;99.90;;;;;;5033045;28;20231;-84
2020/12/14 02:07:39;;;;;;;10.33;9.40;;;2.40;99.90;;;;;;5034265;28;20267;-84
2020/12/14 02:10:05;;;;;;;9.03;8.13;;;2.40;99.90;;;;;;5034321;28;20173;-83
2020/12/14 02:12:30;;;;;;;9.83;8.80;;;2.40;99.90;;;;;;5034174;28;20169;-83
2020/12/14 02:14:58;;;;;;;10.60;9.60;;;2.50;99.90;;;;;;5034509;28;20576;-83
2020/12/14 02:17:25;;;;;;;9.57;8.67;;;2.80;99.90;;;;;;5034282;28;20177;-83
2020/12/14 02:19:52;;;;;;;10.33;9.33;;;2.50;99.90;;;;;;5032786;28;20514;-83
2020/12/14 02:22:27;;;;;;;10.37;9.27;;;2.50;99.90;;;;;;5032860;28;20476;-82
2020/12/14 02:24:59;;;;;;;10.93;8.80;;;2.80;99.90;;;;;;5032570;28;20474;-83
2020/12/14 02:27:27;;;;;;;10.03;9.03;;;2.80;99.90;;;;;;5034225;28;20416;-84
2020/12/14 02:29:53;;;;;;;10.33;9.40;;;2.40;99.90;;;;;;5034003;28;20419;-83
2020/12/14 02:32:21;;;;;;;8.90;8.00;;;2.40;99.90;;;;;;5033766;28;20558;-84
2020/12/14 02:34:48;;;;;;;9.93;8.97;;;2.70;99.90;;;;;;5033850;28;20419;-83
2020/12/14 02:37:17;;;;;;;11.47;9.50;;;2.30;99.90;;;;;;5033783;28;20422;-84
2020/12/14 02:39:43;;;;;;;9.83;8.83;;;2.50;99.90;;;;;;5049187;28;20993;-84
2020/12/14 02:42:11;;;;;;;9.60;8.70;;;2.60;99.90;;;;;;5033713;28;20561;-83
2020/12/14 02:44:37;;;;;;;11.43;9.17;;;2.80;99.90;;;;;;5048666;28;20208;-83
2020/12/14 02:47:03;;;;;;;10.23;9.20;;;2.40;99.90;;;;;;5032413;28;20455;-84
2020/12/14 02:49:29;;;;;;;10.33;9.17;;;2.40;99.90;;;;;;5032127;28;20453;-83
2020/12/14 02:51:55;;;;;;;12.67;9.33;;;2.70;99.90;;;;;;5033633;28;20506;-83
2020/12/14 02:54:21;;;;;;;11.60;8.53;;;2.40;99.90;;;;;;5033462;28;20498;-83
2020/12/14 02:56:46;;;;;;;9.97;9.03;;;2.70;99.90;;;;;;5032127;28;20228;-83
2020/12/14 02:59:13;;;;;;;12.63;11.33;;;2.30;99.90;;;;;;5032209;28;20186;-84
2020/12/14 03:01:39;;;;;;;10.10;9.17;;;2.50;99.90;;;;;;5032084;28;20199;-83
2020/12/14 03:04:05;;;;;;;11.03;9.37;;;2.30;99.90;;;;;;5032395;28;20475;-83
2020/12/14 03:06:31;;;;;;;10.40;8.30;;;2.30;99.90;;;;;;5033527;28;20227;-84
2020/12/14 03:08:57;;;;;;;10.10;9.10;;;2.40;99.90;;;;;;5032038;28;20184;-84
2020/12/14 03:11:22;;;;;;;12.17;9.50;;;2.60;99.90;;;;;;5032109;28;20973;-84
2020/12/14 03:13:48;;;;;;;10.07;8.83;;;2.70;99.90;;;;;;5033310;28;20415;-83
2020/12/14 03:16:14;;;;;;;10.93;9.37;;;2.70;99.90;;;;;;5033370;28;20172;-83
2020/12/14 03:18:40;;;;;;;12.40;10.07;;;2.20;99.90;;;;;;5032052;28;20230;-83
2020/12/14 03:21:06;;;;;;;10.60;8.53;;;2.70;99.90;;;;;;5033004;28;20528;-83
2020/12/14 03:23:32;;;;;;;10.93;9.43;;;2.70;99.90;;;;;;5033218;28;20433;-80
2020/12/14 03:25:58;;;;;;;10.93;9.60;;;2.80;99.90;;;;;;5033378;28;20795;-83
2020/12/14 03:28:23;;;;;;;9.83;8.83;;;2.50;99.90;;;;;;5031852;28;20431;-83
2020/12/14 03:30:49;;;;;;;11.97;9.97;;;2.80;99.90;;;;;;5032253;28;20191;-83
2020/12/14 03:33:14;;;;;;;11.80;9.57;;;2.90;99.90;;;;;;5033288;28;20169;-83
2020/12/14 03:35:40;;;;;;;10.30;9.10;;;2.50;99.90;;;;;;5033418;28;20173;-83
2020/12/14 03:38:06;;;;;;;10.93;9.80;;;2.50;99.90;;;;;;5031961;28;20264;-84
2020/12/14 03:40:31;;;;;;;11.43;9.90;;;2.70;99.90;;;;;;5032268;28;20615;-84
2020/12/14 03:42:57;;;;;;;11.77;10.57;;;2.50;99.90;;;;;;5032954;28;20181;-83
2020/12/14 03:45:23;;;;;;;14.13;10.13;;;2.60;99.90;;;;;;5033290;28;20222;-83
2020/12/14 03:47:48;;;;;;;16.60;12.20;;;2.60;99.90;;;;;;5033331;28;20184;-84
2020/12/14 03:50:14;;;;;;;11.57;10.37;;;2.50;99.90;;;;;;5033153;28;20231;-84
2020/12/14 03:52:39;;;;;;;12.90;10.80;;;2.70;99.90;;;;;;5033272;28;20177;-83
2020/12/14 03:55:05;;;;;;;15.03;10.50;;;2.50;99.90;;;;;;5033054;28;20621;-83
2020/12/14 03:57:31;;;;;;;15.23;10.60;;;2.90;99.90;;;;;;5032877;28;20309;-84
2020/12/14 03:59:57;;;;;;;12.80;10.83;;;3.00;99.90;;;;;;5032192;28;20220;-83
2020/12/14 04:02:23;;;;;;;14.57;10.17;;;2.50;99.90;;;;;;5032960;28;20416;-83
2020/12/14 04:04:49;;;;;;;14.50;12.00;;;2.80;99.90;;;;;;5032813;28;20599;-83
2020/12/14 04:07:18;;;;;;;17.77;11.63;;;2.90;99.90;;;;;;5031828;28;20426;-82
2020/12/14 04:09:43;;;;;;;16.13;11.90;;;2.90;99.90;;;;;;5033897;28;20411;-83
2020/12/14 04:12:09;;;;;;;13.73;10.40;;;2.60;99.90;;;;;;5032255;28;20437;-84
2020/12/14 04:14:35;;;;;;;16.97;10.60;;;3.10;99.90;;;;;;5031630;28;20272;-83
2020/12/14 04:17:00;;;;;;;15.77;11.60;;;3.00;99.90;;;;;;5031933;28;20536;-84
2020/12/14 04:19:26;;;;;;;14.70;11.07;;;2.80;99.90;;;;;;5033020;28;20179;-82
2020/12/14 04:21:52;;;;;;;19.93;11.77;;;2.90;99.90;;;;;;5031573;28;20189;-83
2020/12/14 04:24:17;;;;;;;15.03;11.43;;;2.90;99.90;;;;;;5033174;28;20235;-85
2020/12/14 04:26:43;;;;;;;15.77;11.40;;;2.50;99.90;;;;;;5032931;28;20447;-83
2020/12/14 04:29:10;;;;;;;16.50;9.77;;;3.00;99.90;;;;;;5032845;28;20618;-83
2020/12/14 04:31:35;;;;;;;13.90;9.90;;;2.70;99.90;;;;;;5034326;28;20419;-84
2020/12/14 04:34:02;;;;;;;18.60;14.37;;;2.80;99.90;;;;;;5035099;28;20427;-84
2020/12/14 04:36:29;;;;;;;14.90;12.20;;;2.80;99.90;;;;;;5036272;28;20184;-82
2020/12/14 04:38:55;;;;;;;15.33;10.93;;;3.20;99.90;;;;;;5037076;28;20893;-84
2020/12/14 04:41:21;;;;;;;14.90;11.97;;;2.90;99.90;;;;;;5035147;28;20534;-86
2020/12/14 04:43:50;;;;;;;13.47;11.47;;;2.80;99.90;;;;;;5034934;28;20784;-84
2020/12/14 04:46:18;;;;;;;15.10;9.90;;;3.00;99.90;;;;;;5036185;28;20435;-83
2020/12/14 04:48:44;;;;;;;13.20;10.83;;;3.00;99.90;;;;;;5036103;28;20422;-83
2020/12/14 04:51:10;;;;;;;14.50;11.47;;;2.80;99.90;;;;;;5036015;28;20787;-84
2020/12/14 04:53:38;;;;;;;14.13;11.37;;;2.70;99.90;;;;;;5034735;28;20426;-83
2020/12/14 04:56:06;;;;;;;16.43;11.90;;;3.10;99.90;;;;;;5035925;28;20180;-84
2020/12/14 04:58:31;;;;;;;12.80;10.60;;;3.20;99.90;;;;;;5035563;28;20451;-82
2020/12/14 05:00:57;;;;;;;13.70;11.20;;;2.90;99.90;;;;;;5035735;28;20497;-84
2020/12/14 05:03:22;;;;;;;16.77;10.77;;;3.20;99.90;;;;;;5037280;28;20176;-84
2020/12/14 05:05:56;;;;;;;12.67;9.77;;;3.20;99.90;;;;;;5034782;28;20663;-82
2020/12/14 05:08:25;;;;;;;15.83;12.10;;;3.20;99.90;;;;;;5035236;28;20200;-84
2020/12/14 05:10:51;;;;;;;14.50;12.03;;;3.20;99.90;;;;;;5034421;28;20573;-84
2020/12/14 05:13:17;;;;;;;15.73;11.10;;;2.90;99.90;;;;;;5034264;28;20502;-82
2020/12/14 05:15:42;;;;;;;17.50;11.50;;;3.30;99.90;;;;;;5036260;28;20188;-84
2020/12/14 05:18:10;;;;;;;13.17;9.70;;;2.80;99.90;;;;;;5035229;28;20191;-83
2020/12/14 05:20:36;;;;;;;16.60;10.90;;;3.20;99.90;;;;;;5035553;28;20165;-84
2020/12/14 05:23:09;;;;;;;14.67;10.33;;;2.80;99.90;;;;;;5036257;28;20554;-83
2020/12/14 05:25:36;;;;;;;13.33;8.77;;;2.80;99.90;;;;;;5035966;28;20221;-83
2020/12/14 05:28:04;;;;;;;13.43;10.33;;;3.30;99.90;;;;;;5034908;28;20756;-84
2020/12/14 05:30:38;;;;;;;16.10;10.60;;;2.90;99.90;;;;;;5035369;28;20462;-83
2020/12/14 05:33:05;;;;;;;17.10;11.07;;;2.70;99.90;;;;;;5036537;28;20415;-85
2020/12/14 05:35:35;;;;;;;12.67;10.70;;;2.70;99.90;;;;;;5035235;28;20407;-83
2020/12/14 05:38:17;;;;;;;15.27;11.67;;;3.00;99.90;;;;;;5035945;28;20403;-83
2020/12/14 05:40:49;;;;;;;10.53;8.13;;;3.20;99.90;;;;;;5035510;28;20458;-84
2020/12/14 05:43:16;;;;;;;17.50;11.60;;;3.10;99.90;;;;;;5035901;28;20549;-83
2020/12/14 05:45:44;;;;;;;16.97;10.13;;;2.70;99.90;;;;;;5034060;28;20520;-84
2020/12/14 05:48:34;;;;;;;15.83;10.90;;;2.50;99.90;;;;;;5034735;28;20953;-86
2020/12/14 05:51:01;;;;;;;15.63;11.60;;;2.90;99.90;;;;;;5034096;28;20858;-87
2020/12/14 05:53:33;;;;;;;27.97;25.40;;;2.60;99.90;;;;;;5033512;28;20429;-84
2020/12/14 05:56:00;;;;;;;10.93;8.00;;;2.60;99.90;;;;;;5036595;28;20407;-83
2020/12/14 05:58:28;;;;;;;16.50;10.67;;;2.50;99.90;;;;;;5034551;28;20536;-83
2020/12/14 06:00:55;;;;;;;16.80;10.43;;;2.50;99.90;;;;;;5034023;28;20403;-87
2020/12/14 06:03:23;;;;;;;16.73;12.63;;;2.90;99.90;;;;;;5034162;28;20415;-84
2020/12/14 06:05:57;;;;;;;16.87;12.60;;;2.80;99.90;;;;;;5033658;28;20883;-83
2020/12/14 06:08:28;;;;;;;16.80;12.70;;;2.80;99.90;;;;;;5033567;28;20434;-83
2020/12/14 06:10:58;;;;;;;16.63;11.47;;;2.80;99.90;;;;;;5034498;28;20454;-83
2020/12/14 06:13:29;;;;;;;16.30;11.20;;;2.80;99.90;;;;;;5033590;28;20427;-84
2020/12/14 06:16:00;;;;;;;16.77;11.20;;;2.50;99.90;;;;;;5022352;28;20942;-82
2020/12/14 06:18:32;;;;;;;18.20;13.00;;;2.70;99.90;;;;;;5046928;28;20509;-83
2020/12/14 06:20:58;;;;;;;18.23;12.20;;;2.30;99.90;;;;;;5048320;28;20432;-83
2020/12/14 06:23:25;;;;;;;14.10;11.03;;;2.30;99.90;;;;;;5033465;28;20427;-83
2020/12/14 06:25:51;;;;;;;18.53;11.67;;;2.60;99.90;;;;;;5034281;28;20419;-81
2020/12/14 06:28:31;;;;;;;14.77;11.47;;;2.40;99.90;;;;;;5030773;28;20786;-84
2020/12/14 06:30:57;;;;;;;20.50;13.47;;;2.50;99.90;;;;;;5042031;28;20998;-83
2020/12/14 06:33:37;;;;;;;16.07;12.70;;;2.20;99.90;;;;;;5044198;28;20423;-82
2020/12/14 06:36:22;;;;;;;16.23;10.97;;;2.80;99.90;;;;;;5034022;28;20532;-84
2020/12/14 06:38:49;;;;;;;18.53;12.30;;;2.40;99.90;;;;;;5031736;28;20441;-84
2020/12/14 06:41:15;;;;;;;18.93;12.60;;;2.60;99.90;;;;;;5035159;28;20416;-85
2020/12/14 06:43:41;;;;;;;20.53;13.13;;;2.20;99.90;;;;;;5032338;28;20442;-82
2020/12/14 06:46:07;;;;;;;19.30;13.10;;;2.20;99.90;;;;;;5034116;28;20196;-82
2020/12/14 06:48:42;;;;;;;17.10;11.97;;;2.40;99.90;;;;;;5031675;28;20478;-83
2020/12/14 06:51:12;;;;;;;18.17;11.97;;;2.30;99.90;;;;;;5032744;28;20176;-82
2020/12/14 06:53:38;;;;;;;20.60;12.97;;;2.40;99.90;;;;;;5033124;28;20419;-83
2020/12/14 06:56:04;;;;;;;22.93;13.80;;;2.30;99.90;;;;;;5031714;28;20443;-84
2020/12/14 06:58:30;;;;;;;20.90;14.10;;;2.70;99.90;;;;;;5031088;28;20239;-84
2020/12/14 07:00:57;;;;;;;21.77;14.57;;;2.30;99.90;;;;;;5031599;28;20185;-83
2020/12/14 07:03:37;;;;;;;21.77;14.93;;;2.70;99.90;;;;;;5033059;28;20477;-83
2020/12/14 07:06:04;;;;;;;16.43;9.97;;;2.40;99.90;;;;;;5031471;28;20430;-85
2020/12/14 07:08:39;;;;;;;14.90;11.70;;;2.40;99.90;;;;;;5032443;28;20415;-82
2020/12/14 07:11:13;;;;;;;18.57;12.20;;;2.70;99.90;;;;;;5031161;28;20422;-82
2020/12/14 07:13:38;;;;;;;22.17;13.57;;;2.40;99.90;;;;;;5032358;28;20408;-83
2020/12/14 07:16:12;;;;;;;20.30;13.17;;;2.90;99.90;;;;;;5032262;28;20420;-83
2020/12/14 07:18:39;;;;;;;18.80;12.90;;;2.30;99.90;;;;;;5051064;28;20203;-85
2020/12/14 07:21:15;;;;;;;18.03;12.67;;;2.60;99.90;;;;;;5052698;28;20414;-84
2020/12/14 07:23:45;;;;;;;20.83;13.30;;;2.40;99.90;;;;;;5033701;28;20629;-82
2020/12/14 07:26:15;;;;;;;20.80;11.87;;;2.40;99.90;;;;;;5031008;28;20442;-83
2020/12/14 07:28:49;;;;;;;18.43;12.80;;;2.60;99.90;;;;;;5033093;28;20415;-82
2020/12/14 07:31:20;;;;;;;19.53;13.23;;;2.80;99.90;;;;;;5032649;28;20923;-84
2020/12/14 07:33:57;;;;;;;20.50;13.60;;;2.60;99.90;;;;;;5033419;28;20415;-84
2020/12/14 07:36:25;;;;;;;22.80;13.10;;;3.10;99.90;;;;;;5033321;28;20787;-82
2020/12/14 07:38:56;;;;;;;24.73;15.50;;;2.90;99.90;;;;;;5032128;28;20438;-85
2020/12/14 07:41:23;;;;;;;21.80;14.30;;;3.00;99.90;;;;;;5031597;28;20431;-79
2020/12/14 07:43:53;;;;;;;28.13;17.67;;;3.00;99.90;;;;;;5032516;28;20466;-82
2020/12/14 07:46:23;;;;;;;23.83;18.00;;;3.10;99.90;;;;;;5033257;28;20458;-79
2020/12/14 07:49:05;;;;;;;30.07;21.73;;;3.30;99.90;;;;;;5034471;28;20415;-83
2020/12/14 07:51:36;;;;;;;20.77;15.17;;;3.20;99.90;;;;;;5033238;28;20423;-81
2020/12/14 07:54:03;;;;;;;19.03;13.23;;;3.20;99.90;;;;;;5031302;28;20427;-82
2020/12/14 07:56:30;;;;;;;22.07;14.77;;;3.10;99.90;;;;;;5032657;28;20798;-84
2020/12/14 07:58:56;;;;;;;25.63;16.20;;;3.30;99.90;;;;;;5032274;28;20419;-82
2020/12/14 08:01:22;;;;;;;38.03;30.60;;;3.30;99.90;;;;;;5031045;28;20933;-83
2020/12/14 08:03:49;;;;;;;27.07;19.80;;;3.50;99.90;;;;;;5030976;28;21025;-84
2020/12/14 08:06:18;;;;;;;20.47;15.30;;;3.10;99.90;;;;;;5033306;28;20434;-82
2020/12/14 08:08:49;;;;;;;21.60;13.30;;;3.50;99.90;;;;;;5037726;28;20477;-83
2020/12/14 08:11:18;;;;;;;18.30;13.83;;;3.30;99.90;;;;;;5035305;28;20434;-82
2020/12/14 08:13:46;;;;;;;22.00;14.47;;;3.60;99.90;;;;;;5035127;28;20515;-83
2020/12/14 08:16:16;;;;;;;31.57;20.80;;;3.70;99.90;;;;;;5035747;28;20882;-83
2020/12/14 08:18:44;;;;;;;38.30;25.13;;;3.40;99.90;;;;;;5034824;28;20418;-84
2020/12/14 08:21:23;;;;;;;23.00;15.00;;;3.40;99.90;;;;;;5036780;28;20423;-82
2020/12/14 08:23:50;;;;;;;34.47;25.23;;;3.90;99.90;;;;;;5037766;28;20459;-86
2020/12/14 08:26:22;;;;;;;38.70;26.63;;;3.90;99.90;;;;;;5035230;28;20423;-84
2020/12/14 08:28:50;;;;;;;19.77;13.17;;;3.90;99.90;;;;;;5035425;28;20411;-84
2020/12/14 08:31:15;;;;;;;19.50;14.50;;;4.10;99.90;;;;;;5035433;28;20518;-83
2020/12/14 08:34:12;;;;;;;18.97;14.13;;;4.20;99.90;;;;;;5035191;28;20515;-81
2020/12/14 08:36:40;;;;;;;15.20;13.07;;;4.30;99.90;;;;;;5022006;28;20621;-83
2020/12/14 08:39:12;;;;;;;16.90;12.40;;;4.30;99.90;;;;;;5034372;28;20428;-84
2020/12/14 08:41:38;;;;;;;24.33;14.17;;;4.60;99.90;;;;;;5035016;28;20779;-83
2020/12/14 08:44:03;;;;;;;15.07;13.30;;;4.30;99.90;;;;;;5033778;28;20470;-83
2020/12/14 08:46:29;;;;;;;15.73;12.10;;;4.60;99.90;;;;;;5033412;28;20226;-83
2020/12/14 08:48:59;;;;;;;13.27;11.60;;;4.60;99.90;;;;;;5033644;28;20178;-84
2020/12/14 08:51:32;;;;;;;15.80;14.07;;;4.60;99.90;;;;;;5035381;28;20173;-82
2020/12/14 08:54:18;;;;;;;14.00;11.17;;;4.70;99.90;;;;;;5033557;28;20427;-84
2020/12/14 08:56:45;;;;;;;15.17;13.57;;;4.80;99.90;;;;;;5033474;28;20477;-84
2020/12/14 08:59:19;;;;;;;13.30;10.43;;;4.60;99.90;;;;;;5040569;28;20411;-83
2020/12/14 09:02:17;;;;;;;16.10;10.67;;;5.00;99.90;;;;;;5048684;28;20458;-83
2020/12/14 09:04:42;;;;;;;12.13;10.10;;;4.70;99.90;;;;;;5034566;28;20475;-84
2020/12/14 09:07:20;;;;;;;12.47;9.50;;;5.10;99.90;;;;;;5033825;28;20827;-84
2020/12/14 09:09:46;;;;;;;8.07;7.27;;;5.10;99.90;;;;;;5034467;28;20169;-84
2020/12/14 09:12:13;;;;;;;37.03;13.00;;;5.40;99.90;;;;;;5035698;28;20411;-83
2020/12/14 09:14:38;;;;;;;11.87;9.33;;;5.40;99.90;;;;;;5032919;28;20180;-83
2020/12/14 09:17:14;;;;;;;13.43;9.70;;;5.50;99.90;;;;;;5032428;28;20775;-81
2020/12/14 09:19:41;;;;;;;12.63;8.50;;;5.60;99.90;;;;;;5034945;28;20415;-84
2020/12/14 09:22:07;;;;;;;12.83;9.47;;;5.70;99.90;;;;;;5035717;28;20415;-83
2020/12/14 09:24:35;;;;;;;10.70;9.60;;;5.80;99.90;;;;;;5033761;28;20463;-84
2020/12/14 09:27:09;;;;;;;11.23;9.90;;;6.00;99.90;;;;;;5034746;28;20415;-84
2020/12/14 09:29:39;;;;;;;10.73;8.80;;;6.30;99.90;;;;;;5037590;28;20521;-83
2020/12/14 09:32:07;;;;;;;11.70;9.87;;;6.50;99.90;;;;;;5035030;28;20418;-82
2020/12/14 09:34:32;;;;;;;11.97;9.20;;;6.60;99.90;;;;;;5036526;28;20454;-84
2020/12/14 09:37:00;;;;;;;12.47;8.80;;;6.70;99.90;;;;;;5036440;28;20416;-84
2020/12/14 09:39:28;;;;;;;14.33;9.70;;;6.70;99.90;;;;;;5034097;28;20184;-82
2020/12/14 09:41:57;;;;;;;11.37;8.77;;;6.70;99.90;;;;;;5034512;28;20779;-84
2020/12/14 09:44:25;;;;;;;17.03;10.13;;;6.70;99.90;;;;;;5035870;28;20455;-84
2020/12/14 09:46:50;;;;;;;9.50;8.47;;;6.80;99.90;;;;;;5034981;28;20434;-80
2020/12/14 09:49:16;;;;;;;28.10;20.20;;;6.90;99.90;;;;;;5034877;28;20782;-84
2020/12/14 09:51:42;;;;;;;18.60;9.30;;;7.00;99.90;;;;;;5035668;28;20856;-86
2020/12/14 09:54:08;;;;;;;11.20;10.03;;;7.00;99.90;;;;;;5035290;28;20208;-84
2020/12/14 09:56:34;;;;;;;17.33;11.87;;;7.20;99.90;;;;;;5034687;28;20220;-84
2020/12/14 09:59:01;;;;;;;10.20;8.90;;;7.20;99.90;;;;;;5034967;28;20556;-85
2020/12/14 10:01:28;;;;;;;18.27;9.73;;;7.40;99.90;;;;;;5035102;28;20461;-82
2020/12/14 10:03:54;;;;;;;9.50;7.63;;;7.30;99.90;;;;;;5019002;28;20490;-83
2020/12/14 10:06:20;;;;;;;12.20;8.47;;;7.30;99.90;;;;;;5033366;28;20424;-84
2020/12/14 10:08:46;;;;;;;10.00;8.63;;;7.30;99.90;;;;;;5034904;28;20422;-83
2020/12/14 10:11:12;;;;;;;32.40;12.27;;;7.40;99.90;;;;;;5034049;28;20988;-84
2020/12/14 10:13:43;;;;;;;11.07;8.40;;;7.30;99.90;;;;;;5034267;28;20509;-79
2020/12/14 10:16:11;;;;;;;15.33;11.77;;;7.40;99.90;;;;;;5036921;28;20529;-84
2020/12/14 10:18:37;;;;;;;17.57;10.83;;;7.40;99.90;;;;;;5033323;28;20784;-84
2020/12/14 10:21:03;;;;;;;19.90;15.30;;;7.30;99.90;;;;;;5032821;28;20426;-85
2020/12/14 10:23:29;;;;;;;30.90;27.63;;;7.40;99.90;;;;;;5034073;28;20185;-85
2020/12/14 10:25:55;;;;;;;15.53;12.87;;;7.20;99.90;;;;;;5033786;28;20471;-83
2020/12/14 10:28:21;;;;;;;11.00;9.43;;;7.20;99.90;;;;;;5019490;28;20184;-84
2020/12/14 10:30:46;;;;;;;63.90;37.37;;;7.20;99.90;;;;;;5030202;28;20629;-84
2020/12/14 10:33:12;;;;;;;13.93;11.00;;;7.30;99.90;;;;;;5047747;28;20518;-82
2020/12/14 10:35:38;;;;;;;10.90;9.40;;;7.30;99.90;;;;;;5032597;28;20192;-82
2020/12/14 10:38:04;;;;;;;12.67;8.70;;;7.20;99.90;;;;;;5032408;28;20181;-85
2020/12/14 10:40:30;;;;;;;20.03;9.43;;;7.30;99.90;;;;;;5035471;28;20677;-85
2020/12/14 10:42:56;;;;;;;10.83;8.67;;;7.30;99.90;;;;;;5034113;28;20459;-85
2020/12/14 10:45:22;;;;;;;9.00;8.10;;;7.40;99.90;;;;;;5032665;28;20295;-83
2020/12/14 10:47:48;;;;;;;11.43;8.47;;;7.40;99.90;;;;;;5040233;28;20168;-82
2020/12/14 10:50:16;;;;;;;14.23;9.40;;;7.30;99.90;;;;;;5053086;28;20929;-85
2020/12/14 10:52:41;;;;;;;10.97;9.43;;;7.30;99.90;;;;;;5052808;28;20600;-85
2020/12/14 10:55:07;;;;;;;13.60;8.20;;;7.30;99.90;;;;;;5052075;28;20505;-84
2020/12/14 10:57:33;;;;;;;10.10;9.10;;;7.40;99.90;;;;;;5054003;28;20212;-85
2020/12/14 11:00:06;;;;;;;10.27;8.93;;;7.60;99.90;;;;;;5054153;28;20183;-86
2020/12/14 11:02:34;;;;;;;15.00;8.43;;;7.60;99.90;;;;;;5055998;28;20172;-84
2020/12/14 11:04:59;;;;;;;12.50;9.83;;;7.60;99.90;;;;;;5055053;28;20530;-85
2020/12/14 11:07:25;;;;;;;22.90;10.33;;;7.70;99.90;;;;;;5054343;28;20839;-84
2020/12/14 11:09:51;;;;;;;10.57;8.20;;;7.80;99.90;;;;;;5054416;28;20195;-84
2020/12/14 11:12:16;;;;;;;9.20;7.23;;;7.80;99.90;;;;;;5053793;28;20253;-85
2020/12/14 11:14:42;;;;;;;10.50;7.70;;;7.80;99.90;;;;;;5054477;28;20179;-85
2020/12/14 11:17:09;;;;;;;16.00;9.33;;;8.00;99.90;;;;;;5053125;28;20641;-85
2020/12/14 11:19:34;;;;;;;9.63;7.87;;;7.90;99.90;;;;;;5054084;28;20686;-85
2020/12/14 11:22:00;;;;;;;11.10;7.10;;;8.00;99.90;;;;;;5052543;28;20409;-84
2020/12/14 11:24:26;;;;;;;24.40;11.00;;;8.00;99.90;;;;;;5055648;28;20637;-85
2020/12/14 11:26:51;;;;;;;9.77;8.50;;;8.10;99.90;;;;;;5052405;28;20187;-84
2020/12/14 11:29:18;;;;;;;10.30;8.90;;;8.00;99.90;;;;;;5053388;28;20175;-88
2020/12/14 11:31:44;;;;;;;20.80;9.90;;;7.90;99.90;;;;;;5054627;28;20179;-86
2020/12/14 11:34:10;;;;;;;9.97;7.50;;;7.90;99.90;;;;;;5054017;28;20426;-84
2020/12/14 11:36:37;;;;;;;9.20;8.30;;;8.00;99.90;;;;;;5052345;28;20775;-84
2020/12/14 11:39:03;;;;;;;7.97;7.27;;;8.00;99.90;;;;;;5053253;28;20522;-84
2020/12/14 11:41:29;;;;;;;13.07;9.10;;;8.00;99.90;;;;;;5055496;28;20418;-84
2020/12/14 11:43:56;;;;;;;8.77;7.87;;;8.10;99.90;;;;;;5057938;28;20465;-83
2020/12/14 11:46:21;;;;;;;8.17;7.03;;;8.20;99.90;;;;;;5057665;28;20278;-85
2020/12/14 11:48:47;;;;;;;8.57;7.33;;;8.20;99.90;;;;;;5057309;28;20445;-85
2020/12/14 11:51:13;;;;;;;8.90;8.10;;;8.20;99.90;;;;;;5057557;28;20539;-82
2020/12/14 11:53:38;;;;;;;17.20;10.93;;;8.20;99.90;;;;;;5055258;28;20701;-85
2020/12/14 11:56:04;;;;;;;13.60;8.53;;;8.40;99.90;;;;;;5055915;28;20585;-84
2020/12/14 11:58:29;;;;;;;10.63;7.40;;;8.50;99.90;;;;;;5056993;28;20657;-84
2020/12/14 12:00:55;;;;;;;8.03;6.60;;;8.70;99.90;;;;;;5057340;28;20237;-84
2020/12/14 12:03:21;;;;;;;7.33;6.63;;;8.80;99.90;;;;;;5056945;28;20241;-82
2020/12/14 12:05:47;;;;;;;7.07;6.37;;;8.80;99.90;;;;;;5055006;28;20215;-84
2020/12/14 12:08:13;;;;;;;7.40;6.70;;;8.80;99.90;;;;;;5055320;28;20179;-82
2020/12/14 12:10:39;;;;;;;7.87;6.93;;;8.90;99.90;;;;;;5057771;28;20426;-88
2020/12/14 12:13:04;;;;;;;9.23;6.80;;;8.90;99.90;;;;;;5055748;28;20782;-83
2020/12/14 12:15:30;;;;;;;6.63;5.77;;;8.80;99.90;;;;;;5055825;28;20861;-84
2020/12/14 12:17:55;;;;;;;12.10;6.60;;;8.80;99.90;;;;;;5056832;28;20183;-82
2020/12/14 12:20:21;;;;;;;6.70;6.00;;;8.80;99.90;;;;;;5056690;28;20172;-83
2020/12/14 12:22:47;;;;;;;10.80;6.53;;;8.90;99.90;;;;;;5051432;28;20184;-84
2020/12/14 12:25:13;;;;;;;14.63;7.50;;;9.00;99.90;;;;;;5036506;28;20331;-85
2020/12/14 12:27:38;;;;;;;7.17;6.00;;;9.10;99.90;;;;;;5036029;28;20180;-84
2020/12/14 12:30:05;;;;;;;9.23;6.87;;;9.10;99.90;;;;;;5037011;28;20430;-84
2020/12/14 12:32:31;;;;;;;6.73;6.07;;;9.20;99.90;;;;;;5034994;28;20181;-84
2020/12/14 12:34:57;;;;;;;9.30;7.07;;;9.30;99.90;;;;;;5038230;28;20966;-86
2020/12/14 12:37:23;;;;;;;6.17;5.67;;;9.30;99.90;;;;;;5035245;28;20435;-84
2020/12/14 12:39:48;;;;;;;6.83;6.10;;;9.40;99.90;;;;;;5037518;28;20214;-83
2020/12/14 12:42:15;;;;;;;33.47;9.37;;;9.40;99.90;;;;;;5037502;28;20424;-80
2020/12/14 12:44:40;;;;;;;6.50;5.83;;;9.60;99.90;;;;;;5035881;28;20328;-84